sensor_id;sensor_type;location;lat;lon;timestamp;P1;durP1;ratioP1;P2;durP2;ratioP2
20067;SDS011;10194;50.824;7.134;2023-07-09T14:15:43;128.47;;;88.10;;
20067;SDS011;10194;50.824;7.134;2023-07-09T14:18:13;132.90;;;89.97;;
20067;SDS011;10194;50.824;7.134;2023-07-09T14:20:42;142.73;;;99.97;;
20067;SDS011;10194;50.824;7.134;2023-07-09T14:23:10;144.30;;;105.97;;
20067;SDS011;10194;50.824;7.134;2023-07-09T14:25:44;148.83;;;105.20;;
20067;SDS011;10194;50.824;7.134;2023-07-09T14:28:15;147.13;;;104.10;;
20067;SDS011;10194;50.824;7.134;2023-07-09T14:30:44;147.53;;;104.27;;
20067;SDS011;10194;50.824;7.134;2023-07-09T14:33:15;150.23;;;105.60;;
20067;SDS011;10194;50.824;7.134;2023-07-09T14:35:44;144.23;;;99.67;;
20067;SDS011;10194;50.824;7.134;2023-07-09T14:38:15;150.73;;;106.03;;
20067;SDS011;10194;50.824;7.134;2023-07-09T14:40:52;147.67;;;102.70;;
20067;SDS011;10194;50.824;7.134;2023-07-09T14:43:21;151.20;;;107.20;;
20067;SDS011;10194;50.824;7.134;2023-07-09T14:45:47;149.63;;;105.80;;
20067;SDS011;10194;50.824;7.134;2023-07-09T14:48:18;150.40;;;111.53;;
20067;SDS011;10194;50.824;7.134;2023-07-09T14:50:45;151.23;;;106.43;;
20067;SDS011;10194;50.824;7.134;2023-07-09T14:53:15;155.90;;;103.20;;
20067;SDS011;10194;50.824;7.134;2023-07-09T14:55:52;157.53;;;101.17;;
20067;SDS011;10194;50.824;7.134;2023-07-09T14:58:21;167.17;;;102.97;;
20067;SDS011;10194;50.824;7.134;2023-07-09T15:00:48;161.70;;;103.63;;
20067;SDS011;10194;50.824;7.134;2023-07-09T15:03:19;161.27;;;104.50;;
20067;SDS011;10194;50.824;7.134;2023-07-09T15:05:48;159.83;;;103.57;;
20067;SDS011;10194;50.824;7.134;2023-07-09T15:08:16;158.63;;;104.67;;
20067;SDS011;10194;50.824;7.134;2023-07-09T15:10:47;156.30;;;103.70;;
20067;SDS011;10194;50.824;7.134;2023-07-09T15:13:19;157.13;;;103.90;;
20067;SDS011;10194;50.824;7.134;2023-07-09T15:15:58;156.77;;;101.67;;
20067;SDS011;10194;50.824;7.134;2023-07-09T15:18:28;155.37;;;105.60;;
20067;SDS011;10194;50.824;7.134;2023-07-09T15:20:55;159.77;;;102.90;;
20067;SDS011;10194;50.824;7.134;2023-07-09T15:23:23;163.80;;;105.13;;
20067;SDS011;10194;50.824;7.134;2023-07-09T15:25:50;154.63;;;105.87;;
20067;SDS011;10194;50.824;7.134;2023-07-09T15:28:17;150.63;;;103.30;;
20067;SDS011;10194;50.824;7.134;2023-07-09T15:30:43;150.33;;;105.23;;
20067;SDS011;10194;50.824;7.134;2023-07-09T15:33:13;151.00;;;104.97;;
20067;SDS011;10194;50.824;7.134;2023-07-09T15:35:42;151.70;;;102.97;;
20067;SDS011;10194;50.824;7.134;2023-07-09T15:38:31;152.13;;;102.90;;
20067;SDS011;10194;50.824;7.134;2023-07-09T15:40:59;151.60;;;104.10;;
20067;SDS011;10194;50.824;7.134;2023-07-09T15:43:25;150.13;;;99.47;;
20067;SDS011;10194;50.824;7.134;2023-07-09T15:45:51;147.83;;;97.60;;
20067;SDS011;10194;50.824;7.134;2023-07-09T15:48:22;150.30;;;102.73;;
20067;SDS011;10194;50.824;7.134;2023-07-09T15:50:48;148.17;;;97.50;;
20067;SDS011;10194;50.824;7.134;2023-07-09T15:53:14;145.60;;;96.23;;
20067;SDS011;10194;50.824;7.134;2023-07-09T15:55:40;146.90;;;98.60;;
20067;SDS011;10194;50.824;7.134;2023-07-09T15:58:07;149.13;;;99.87;;
20067;SDS011;10194;50.824;7.134;2023-07-09T16:00:41;149.63;;;98.33;;
20067;SDS011;10194;50.824;7.134;2023-07-09T16:03:09;146.67;;;96.47;;
20067;SDS011;10194;50.824;7.134;2023-07-09T16:05:35;145.97;;;97.67;;
20067;SDS011;10194;50.824;7.134;2023-07-09T16:08:02;149.17;;;100.33;;
20067;SDS011;10194;50.824;7.134;2023-07-09T16:10:30;153.23;;;102.03;;
20067;SDS011;10194;50.824;7.134;2023-07-09T16:12:56;146.87;;;96.60;;
20067;SDS011;10194;50.824;7.134;2023-07-09T16:15:23;149.43;;;97.07;;
20067;SDS011;10194;50.824;7.134;2023-07-09T16:17:50;145.57;;;98.00;;
20067;SDS011;10194;50.824;7.134;2023-07-09T16:20:24;151.97;;;97.30;;
20067;SDS011;10194;50.824;7.134;2023-07-09T16:22:54;153.10;;;99.00;;
20067;SDS011;10194;50.824;7.134;2023-07-09T16:25:23;150.13;;;100.43;;
20067;SDS011;10194;50.824;7.134;2023-07-09T16:27:57;148.53;;;101.50;;
20067;SDS011;10194;50.824;7.134;2023-07-09T16:30:23;150.37;;;100.70;;
20067;SDS011;10194;50.824;7.134;2023-07-09T16:32:53;149.80;;;99.57;;
20067;SDS011;10194;50.824;7.134;2023-07-09T16:35:21;151.00;;;101.17;;
20067;SDS011;10194;50.824;7.134;2023-07-09T16:37:53;148.03;;;99.63;;
20067;SDS011;10194;50.824;7.134;2023-07-09T16:40:21;150.03;;;101.70;;
20067;SDS011;10194;50.824;7.134;2023-07-09T16:42:56;149.77;;;100.13;;
20067;SDS011;10194;50.824;7.134;2023-07-09T16:45:27;150.03;;;99.93;;
20067;SDS011;10194;50.824;7.134;2023-07-09T16:47:53;146.57;;;99.43;;
20067;SDS011;10194;50.824;7.134;2023-07-09T16:50:20;150.07;;;101.80;;
20067;SDS011;10194;50.824;7.134;2023-07-09T16:52:51;150.57;;;99.33;;
20067;SDS011;10194;50.824;7.134;2023-07-09T16:55:23;150.37;;;99.60;;
20067;SDS011;10194;50.824;7.134;2023-07-09T16:57:54;147.40;;;97.57;;
20067;SDS011;10194;50.824;7.134;2023-07-09T17:00:29;148.00;;;100.30;;
20067;SDS011;10194;50.824;7.134;2023-07-09T17:02:59;146.83;;;98.20;;
20067;SDS011;10194;50.824;7.134;2023-07-09T17:05:26;145.63;;;97.93;;
20067;SDS011;10194;50.824;7.134;2023-07-09T17:07:53;146.47;;;97.53;;
20067;SDS011;10194;50.824;7.134;2023-07-09T17:10:19;148.17;;;98.50;;
20067;SDS011;10194;50.824;7.134;2023-07-09T17:12:45;145.13;;;98.63;;
20067;SDS011;10194;50.824;7.134;2023-07-09T17:17:59;150.83;;;102.57;;
20067;SDS011;10194;50.824;7.134;2023-07-09T17:20:26;148.90;;;102.40;;
20067;SDS011;10194;50.824;7.134;2023-07-09T17:22:55;153.77;;;113.10;;
20067;SDS011;10194;50.824;7.134;2023-07-09T17:28:09;148.80;;;104.07;;
20067;SDS011;10194;50.824;7.134;2023-07-09T17:30:47;150.97;;;103.13;;
20067;SDS011;10194;50.824;7.134;2023-07-09T17:33:16;151.27;;;100.73;;
20067;SDS011;10194;50.824;7.134;2023-07-09T17:35:43;147.70;;;102.73;;
20067;SDS011;10194;50.824;7.134;2023-07-09T17:38:13;150.97;;;105.20;;
20067;SDS011;10194;50.824;7.134;2023-07-09T17:40:42;150.33;;;103.53;;
20067;SDS011;10194;50.824;7.134;2023-07-09T17:43:17;154.63;;;102.40;;
20067;SDS011;10194;50.824;7.134;2023-07-09T17:45:47;154.47;;;105.30;;
20067;SDS011;10194;50.824;7.134;2023-07-09T17:48:16;152.37;;;105.83;;
20067;SDS011;10194;50.824;7.134;2023-07-09T17:50:46;149.70;;;103.47;;
20067;SDS011;10194;50.824;7.134;2023-07-09T17:53:16;151.97;;;103.63;;
20067;SDS011;10194;50.824;7.134;2023-07-09T17:55:44;149.43;;;104.93;;
20067;SDS011;10194;50.824;7.134;2023-07-09T17:58:12;154.33;;;106.83;;
20067;SDS011;10194;50.824;7.134;2023-07-09T18:00:42;154.20;;;108.63;;
20067;SDS011;10194;50.824;7.134;2023-07-09T18:03:09;153.90;;;103.20;;
20067;SDS011;10194;50.824;7.134;2023-07-09T18:05:36;153.27;;;106.20;;
20067;SDS011;10194;50.824;7.134;2023-07-09T18:08:06;151.63;;;104.70;;
20067;SDS011;10194;50.824;7.134;2023-07-09T18:10:36;155.33;;;104.03;;
20067;SDS011;10194;50.824;7.134;2023-07-09T18:13:07;153.87;;;107.20;;
20067;SDS011;10194;50.824;7.134;2023-07-09T18:15:37;153.60;;;107.77;;
20067;SDS011;10194;50.824;7.134;2023-07-09T18:18:04;152.93;;;107.03;;
20067;SDS011;10194;50.824;7.134;2023-07-09T18:20:31;152.07;;;105.37;;
20067;SDS011;10194;50.824;7.134;2023-07-09T18:22:57;152.70;;;105.33;;
20067;SDS011;10194;50.824;7.134;2023-07-09T18:25:24;150.70;;;107.33;;
20067;SDS011;10194;50.824;7.134;2023-07-09T18:27:52;152.97;;;107.17;;
20067;SDS011;10194;50.824;7.134;2023-07-09T18:30:27;151.77;;;105.27;;
20067;SDS011;10194;50.824;7.134;2023-07-09T18:32:57;152.93;;;106.80;;
20067;SDS011;10194;50.824;7.134;2023-07-09T18:35:33;153.23;;;108.10;;
20067;SDS011;10194;50.824;7.134;2023-07-09T18:38:03;156.90;;;109.07;;
20067;SDS011;10194;50.824;7.134;2023-07-09T18:40:39;155.30;;;103.93;;
20067;SDS011;10194;50.824;7.134;2023-07-09T18:43:09;157.23;;;109.00;;
20067;SDS011;10194;50.824;7.134;2023-07-09T18:45:36;154.33;;;108.53;;
20067;SDS011;10194;50.824;7.134;2023-07-09T18:48:04;154.83;;;108.20;;
20067;SDS011;10194;50.824;7.134;2023-07-09T18:50:41;151.53;;;103.77;;
20067;SDS011;10194;50.824;7.134;2023-07-09T18:53:09;151.93;;;104.87;;
20067;SDS011;10194;50.824;7.134;2023-07-09T18:55:39;153.37;;;108.10;;
20067;SDS011;10194;50.824;7.134;2023-07-09T18:58:13;152.00;;;106.47;;
20067;SDS011;10194;50.824;7.134;2023-07-09T19:00:45;150.07;;;99.67;;
20067;SDS011;10194;50.824;7.134;2023-07-09T19:03:15;151.20;;;101.57;;
20067;SDS011;10194;50.824;7.134;2023-07-09T19:05:44;152.30;;;103.53;;
20067;SDS011;10194;50.824;7.134;2023-07-09T19:08:16;153.47;;;102.67;;
20067;SDS011;10194;50.824;7.134;2023-07-09T19:10:47;152.40;;;104.40;;
20067;SDS011;10194;50.824;7.134;2023-07-09T19:13:13;150.63;;;102.93;;
20067;SDS011;10194;50.824;7.134;2023-07-09T19:15:40;152.70;;;104.30;;
20067;SDS011;10194;50.824;7.134;2023-07-09T19:18:08;149.73;;;103.70;;
20067;SDS011;10194;50.824;7.134;2023-07-09T19:20:43;154.30;;;105.37;;
20067;SDS011;10194;50.824;7.134;2023-07-09T19:23:12;155.13;;;105.37;;
20067;SDS011;10194;50.824;7.134;2023-07-09T19:25:42;154.60;;;105.20;;
20067;SDS011;10194;50.824;7.134;2023-07-09T19:28:11;154.57;;;105.03;;
20067;SDS011;10194;50.824;7.134;2023-07-09T19:30:38;155.30;;;104.13;;
20067;SDS011;10194;50.824;7.134;2023-07-09T19:33:06;150.13;;;100.97;;
20067;SDS011;10194;50.824;7.134;2023-07-09T19:35:42;152.40;;;102.80;;
20067;SDS011;10194;50.824;7.134;2023-07-09T19:38:09;154.67;;;101.60;;
20067;SDS011;10194;50.824;7.134;2023-07-09T19:40:35;153.93;;;103.67;;
20067;SDS011;10194;50.824;7.134;2023-07-09T19:43:00;152.20;;;102.87;;
20067;SDS011;10194;50.824;7.134;2023-07-09T19:45:29;153.20;;;103.40;;
20067;SDS011;10194;50.824;7.134;2023-07-09T19:48:05;148.93;;;99.27;;
20067;SDS011;10194;50.824;7.134;2023-07-09T19:50:37;153.83;;;99.37;;
20067;SDS011;10194;50.824;7.134;2023-07-09T19:53:13;153.80;;;102.77;;
20067;SDS011;10194;50.824;7.134;2023-07-09T19:55:44;155.23;;;102.77;;
20067;SDS011;10194;50.824;7.134;2023-07-09T19:58:10;157.33;;;104.07;;
20067;SDS011;10194;50.824;7.134;2023-07-09T20:00:36;156.00;;;104.03;;
20067;SDS011;10194;50.824;7.134;2023-07-09T20:03:02;155.87;;;105.47;;
20067;SDS011;10194;50.824;7.134;2023-07-09T20:05:29;156.77;;;110.50;;
20067;SDS011;10194;50.824;7.134;2023-07-09T20:08:15;157.60;;;102.67;;
20067;SDS011;10194;50.824;7.134;2023-07-09T20:10:44;157.73;;;105.07;;
20067;SDS011;10194;50.824;7.134;2023-07-09T20:13:14;160.57;;;110.27;;
20067;SDS011;10194;50.824;7.134;2023-07-09T20:15:47;156.97;;;104.03;;
20067;SDS011;10194;50.824;7.134;2023-07-09T20:18:16;156.07;;;104.03;;
20067;SDS011;10194;50.824;7.134;2023-07-09T20:21:18;158.73;;;103.60;;
20067;SDS011;10194;50.824;7.134;2023-07-09T20:23:41;159.27;;;103.70;;
20067;SDS011;10194;50.824;7.134;2023-07-09T20:26:11;155.27;;;103.53;;
20067;SDS011;10194;50.824;7.134;2023-07-09T20:28:37;156.43;;;104.03;;
20067;SDS011;10194;50.824;7.134;2023-07-09T20:31:07;157.67;;;104.97;;
20067;SDS011;10194;50.824;7.134;2023-07-09T20:33:45;158.63;;;108.33;;
20067;SDS011;10194;50.824;7.134;2023-07-09T20:36:11;161.77;;;109.17;;
20067;SDS011;10194;50.824;7.134;2023-07-09T20:38:38;158.93;;;107.73;;
20067;SDS011;10194;50.824;7.134;2023-07-09T20:41:04;159.63;;;105.40;;
20067;SDS011;10194;50.824;7.134;2023-07-09T20:43:30;156.10;;;105.47;;
20067;SDS011;10194;50.824;7.134;2023-07-09T20:46:03;157.90;;;105.50;;
20067;SDS011;10194;50.824;7.134;2023-07-09T20:48:29;157.50;;;104.37;;
20067;SDS011;10194;50.824;7.134;2023-07-09T20:50:55;155.60;;;102.73;;
20067;SDS011;10194;50.824;7.134;2023-07-09T20:53:21;157.23;;;106.47;;
20067;SDS011;10194;50.824;7.134;2023-07-09T20:55:49;159.67;;;103.43;;
20067;SDS011;10194;50.824;7.134;2023-07-09T20:58:20;160.07;;;102.70;;
20067;SDS011;10194;50.824;7.134;2023-07-09T21:00:49;156.63;;;102.43;;
20067;SDS011;10194;50.824;7.134;2023-07-09T21:03:18;157.07;;;103.63;;
20067;SDS011;10194;50.824;7.134;2023-07-09T21:05:47;158.03;;;105.73;;
20067;SDS011;10194;50.824;7.134;2023-07-09T21:08:25;159.67;;;103.10;;
20067;SDS011;10194;50.824;7.134;2023-07-09T21:10:53;158.10;;;104.00;;
20067;SDS011;10194;50.824;7.134;2023-07-09T21:13:21;156.87;;;105.43;;
20067;SDS011;10194;50.824;7.134;2023-07-09T21:15:51;159.93;;;103.03;;
20067;SDS011;10194;50.824;7.134;2023-07-09T21:18:22;159.87;;;103.90;;
20067;SDS011;10194;50.824;7.134;2023-07-09T21:20:57;156.47;;;100.33;;
20067;SDS011;10194;50.824;7.134;2023-07-09T21:23:23;159.10;;;101.47;;
20067;SDS011;10194;50.824;7.134;2023-07-09T21:25:49;157.90;;;104.10;;
20067;SDS011;10194;50.824;7.134;2023-07-09T21:28:16;155.47;;;99.13;;
20067;SDS011;10194;50.824;7.134;2023-07-09T21:30:42;159.03;;;103.17;;
20067;SDS011;10194;50.824;7.134;2023-07-09T21:33:13;153.53;;;100.37;;
20067;SDS011;10194;50.824;7.134;2023-07-09T21:35:43;157.10;;;103.37;;
20067;SDS011;10194;50.824;7.134;2023-07-09T21:38:19;160.63;;;103.67;;
20067;SDS011;10194;50.824;7.134;2023-07-09T21:40:51;160.23;;;101.50;;
20067;SDS011;10194;50.824;7.134;2023-07-09T21:43:18;158.70;;;102.90;;
20067;SDS011;10194;50.824;7.134;2023-07-09T21:45:45;158.37;;;102.23;;
20067;SDS011;10194;50.824;7.134;2023-07-09T21:48:24;158.30;;;103.23;;
20067;SDS011;10194;50.824;7.134;2023-07-09T21:50:51;157.03;;;100.73;;
20067;SDS011;10194;50.824;7.134;2023-07-09T21:53:20;159.10;;;103.43;;
20067;SDS011;10194;50.824;7.134;2023-07-09T21:55:50;160.67;;;103.67;;
20067;SDS011;10194;50.824;7.134;2023-07-09T21:58:16;158.37;;;104.17;;
20067;SDS011;10194;50.824;7.134;2023-07-09T22:00:42;164.10;;;105.63;;
20067;SDS011;10194;50.824;7.134;2023-07-09T22:03:09;159.30;;;102.83;;
20067;SDS011;10194;50.824;7.134;2023-07-09T22:05:38;158.20;;;99.03;;
20067;SDS011;10194;50.824;7.134;2023-07-09T22:08:08;154.97;;;99.70;;
20067;SDS011;10194;50.824;7.134;2023-07-09T22:10:42;162.77;;;102.37;;
20067;SDS011;10194;50.824;7.134;2023-07-09T22:13:12;160.93;;;103.10;;
20067;SDS011;10194;50.824;7.134;2023-07-09T22:15:40;157.07;;;100.43;;
20067;SDS011;10194;50.824;7.134;2023-07-09T22:18:09;158.47;;;100.93;;
20067;SDS011;10194;50.824;7.134;2023-07-09T22:20:39;157.73;;;98.60;;
20067;SDS011;10194;50.824;7.134;2023-07-09T22:23:06;158.77;;;102.30;;
20067;SDS011;10194;50.824;7.134;2023-07-09T22:25:45;154.47;;;98.80;;
20067;SDS011;10194;50.824;7.134;2023-07-09T22:28:12;159.63;;;100.37;;
20067;SDS011;10194;50.824;7.134;2023-07-09T22:30:40;156.83;;;100.50;;
20067;SDS011;10194;50.824;7.134;2023-07-09T22:33:06;155.97;;;100.53;;
20067;SDS011;10194;50.824;7.134;2023-07-09T22:35:33;154.67;;;98.20;;
20067;SDS011;10194;50.824;7.134;2023-07-09T22:38:00;156.27;;;98.83;;
20067;SDS011;10194;50.824;7.134;2023-07-09T22:40:27;162.10;;;103.73;;
20067;SDS011;10194;50.824;7.134;2023-07-09T22:42:55;158.57;;;101.57;;
20067;SDS011;10194;50.824;7.134;2023-07-09T22:45:23;157.70;;;100.03;;
20067;SDS011;10194;50.824;7.134;2023-07-09T22:48:01;161.67;;;101.47;;
20067;SDS011;10194;50.824;7.134;2023-07-09T22:50:30;156.60;;;100.70;;
20067;SDS011;10194;50.824;7.134;2023-07-09T22:53:02;156.63;;;99.10;;
20067;SDS011;10194;50.824;7.134;2023-07-09T22:58:03;158.90;;;101.10;;
20067;SDS011;10194;50.824;7.134;2023-07-09T23:00:33;160.47;;;103.47;;
20067;SDS011;10194;50.824;7.134;2023-07-09T23:03:16;161.60;;;105.23;;
20067;SDS011;10194;50.824;7.134;2023-07-09T23:05:50;161.17;;;103.13;;
20067;SDS011;10194;50.824;7.134;2023-07-09T23:08:25;162.80;;;102.63;;
20067;SDS011;10194;50.824;7.134;2023-07-09T23:10:56;157.03;;;100.77;;
20067;SDS011;10194;50.824;7.134;2023-07-09T23:13:33;158.13;;;104.97;;
20067;SDS011;10194;50.824;7.134;2023-07-09T23:16:00;156.67;;;102.00;;
20067;SDS011;10194;50.824;7.134;2023-07-09T23:18:26;160.43;;;103.30;;
20067;SDS011;10194;50.824;7.134;2023-07-09T23:20:52;159.23;;;100.50;;
20067;SDS011;10194;50.824;7.134;2023-07-09T23:23:18;160.40;;;103.43;;
20067;SDS011;10194;50.824;7.134;2023-07-09T23:25:48;163.00;;;102.27;;
20067;SDS011;10194;50.824;7.134;2023-07-09T23:28:19;161.13;;;104.00;;
20067;SDS011;10194;50.824;7.134;2023-07-09T23:30:45;156.83;;;98.57;;
20067;SDS011;10194;50.824;7.134;2023-07-09T23:35:57;158.27;;;100.33;;
20067;SDS011;10194;50.824;7.134;2023-07-09T23:38:26;156.03;;;101.37;;
20067;SDS011;10194;50.824;7.134;2023-07-09T23:40:56;154.57;;;100.50;;
20067;SDS011;10194;50.824;7.134;2023-07-09T23:43:25;156.33;;;100.10;;
20067;SDS011;10194;50.824;7.134;2023-07-09T23:46:02;167.43;;;105.07;;
20067;SDS011;10194;50.824;7.134;2023-07-09T23:48:28;160.13;;;103.40;;
20067;SDS011;10194;50.824;7.134;2023-07-09T23:50:56;162.67;;;102.67;;
20067;SDS011;10194;50.824;7.134;2023-07-09T23:53:32;160.57;;;100.97;;
20067;SDS011;10194;50.824;7.134;2023-07-09T23:55:59;157.87;;;99.17;;
20067;SDS011;10194;50.824;7.134;2023-07-09T23:58:29;159.67;;;101.97;;
